Time;durP1;ratioP1;P1;durP2;ratioP2;P2;SDS_P1;SDS_P2;PMS_P1;PMS_P2;Temp;Humidity;BMP_temperature;BMP_pressure;BME280_temperature;BME280_humidity;BME280_pressure;Samples;Min_cycle;Max_cycle;Signal;HPM_P1;HPM_P2
2022/08/14 00:02:25;;;;;;;1999.90;999.90;;;20.60;99.90;;;;;;5115984;28;20093;-75
2022/08/14 00:04:51;;;;;;;1999.90;999.90;;;20.60;99.90;;;;;;5115221;28;20505;-76
2022/08/14 00:07:16;;;;;;;1999.90;999.90;;;20.50;99.90;;;;;;5116058;28;20047;-76
2022/08/14 00:09:43;;;;;;;1999.90;999.90;;;20.50;99.90;;;;;;5097534;28;20051;-76
2022/08/14 00:12:08;;;;;;;1999.90;999.90;;;20.50;99.90;;;;;;5114951;28;20092;-75
2022/08/14 00:14:34;;;;;;;1999.90;999.90;;;20.50;99.90;;;;;;5115359;28;20048;-79
2022/08/14 00:17:00;;;;;;;1999.90;999.90;;;20.40;99.90;;;;;;5115170;28;20047;-76
2022/08/14 00:19:25;;;;;;;1999.90;999.90;;;20.40;99.90;;;;;;5115493;28;20100;-76
2022/08/14 00:21:51;;;;;;;1999.90;999.90;;;20.30;99.90;;;;;;5115008;28;20048;-76
2022/08/14 00:24:19;;;;;;;1999.90;999.90;;;20.30;99.90;;;;;;5115526;28;20039;-91
2022/08/14 00:26:44;;;;;;;1999.90;999.90;;;20.30;99.90;;;;;;5116251;28;20051;-92
2022/08/14 00:29:10;;;;;;;1999.90;999.90;;;20.20;99.90;;;;;;5081449;28;20392;-93
2022/08/14 00:31:36;;;;;;;1999.90;999.90;;;20.20;99.90;;;;;;5116419;28;20043;-92
2022/08/14 00:34:02;;;;;;;1999.90;999.90;;;20.20;99.90;;;;;;5097698;28;20043;-93
2022/08/14 00:36:28;;;;;;;1999.90;999.90;;;20.10;99.90;;;;;;5115918;28;20039;-92
2022/08/14 00:38:54;;;;;;;1999.90;999.90;;;20.10;99.90;;;;;;5096782;28;20039;-92
2022/08/14 00:41:20;;;;;;;1999.90;999.90;;;20.10;99.90;;;;;;5097735;28;20096;-92
2022/08/14 00:43:45;;;;;;;1999.90;999.90;;;20.00;99.90;;;;;;5116522;28;20088;-93
2022/08/14 00:46:12;;;;;;;1999.90;999.90;;;20.00;99.90;;;;;;5098169;28;20467;-91
2022/08/14 00:48:38;;;;;;;1999.90;999.90;;;19.90;99.90;;;;;;5116540;28;20044;-92
2022/08/14 00:51:07;;;;;;;1999.90;999.90;;;19.90;99.90;;;;;;5115810;28;20052;-92
2022/08/14 00:53:33;;;;;;;1999.90;999.90;;;19.90;99.90;;;;;;5098149;28;20047;-92
2022/08/14 00:55:59;;;;;;;1999.90;999.90;;;19.80;99.90;;;;;;5115532;28;20104;-92
2022/08/14 00:58:31;;;;;;;1999.90;999.90;;;19.80;99.90;;;;;;5116080;28;20139;-92
2022/08/14 01:01:03;;;;;;;1999.90;999.90;;;19.80;99.90;;;;;;5098577;28;20047;-92
2022/08/14 01:03:29;;;;;;;1999.90;999.90;;;19.70;99.90;;;;;;5098806;28;20559;-92
2022/08/14 01:05:56;;;;;;;1999.90;999.90;;;19.70;99.90;;;;;;5116643;28;20131;-91
2022/08/14 01:08:25;;;;;;;1999.90;999.90;;;19.70;99.90;;;;;;5082215;28;20122;-90
2022/08/14 01:10:55;;;;;;;1999.90;999.90;;;19.60;99.90;;;;;;5116293;28;20044;-92
2022/08/14 01:13:27;;;;;;;1999.90;999.90;;;19.60;99.90;;;;;;5115617;28;20047;-91
2022/08/14 01:15:55;;;;;;;1999.90;999.90;;;19.60;99.90;;;;;;5080830;28;20077;-91
2022/08/14 01:21:10;;;;;;;1999.90;999.90;;;19.50;99.90;;;;;;5096988;28;20086;-92
2022/08/14 01:23:39;;;;;;;1999.90;999.90;;;19.50;99.90;;;;;;5097370;28;20043;-92
2022/08/14 01:26:06;;;;;;;1999.90;999.90;;;19.50;99.90;;;;;;5114784;28;20491;-91
2022/08/14 01:28:36;;;;;;;1999.90;999.90;;;19.50;99.90;;;;;;5116552;28;20491;-93
2022/08/14 01:31:05;;;;;;;1999.90;999.90;;;19.50;99.90;;;;;;5115331;28;20112;-92
2022/08/14 01:33:31;;;;;;;1999.90;999.90;;;19.50;99.90;;;;;;5116321;28;20073;-92
2022/08/14 01:36:00;;;;;;;1999.90;999.90;;;19.50;99.90;;;;;;5116103;28;20107;-89
2022/08/14 01:38:33;;;;;;;1999.90;999.90;;;19.50;99.90;;;;;;5080716;28;20050;-92
2022/08/14 01:41:07;;;;;;;1999.90;999.90;;;19.50;99.90;;;;;;5115879;28;20495;-91
2022/08/14 01:43:42;;;;;;;1999.90;999.90;;;19.40;99.90;;;;;;5115532;28;20083;-91
2022/08/14 01:46:10;;;;;;;1999.90;999.90;;;19.40;99.90;;;;;;5096842;28;20040;-93
2022/08/14 01:48:37;;;;;;;1999.90;999.90;;;19.40;99.90;;;;;;5115353;28;20121;-92
2022/08/14 01:51:03;;;;;;;1999.90;999.90;;;19.40;99.90;;;;;;5115264;28;20054;-92
2022/08/14 01:53:30;;;;;;;1999.90;999.90;;;19.40;99.90;;;;;;5097949;28;20055;-92
2022/08/14 01:56:03;;;;;;;1999.90;999.90;;;19.30;99.90;;;;;;5096828;28;20143;-91
2022/08/14 01:58:30;;;;;;;1999.90;999.90;;;19.30;99.90;;;;;;5116127;28;20063;-92
2022/08/14 02:00:57;;;;;;;1999.90;999.90;;;19.30;99.90;;;;;;5116450;28;20043;-92
2022/08/14 02:03:27;;;;;;;1999.90;999.90;;;19.30;99.90;;;;;;5115719;28;20047;-91
2022/08/14 02:05:58;;;;;;;1999.90;999.90;;;19.30;99.90;;;;;;5081492;28;20048;-93
2022/08/14 02:08:26;;;;;;;1999.90;999.90;;;19.20;99.90;;;;;;5098909;28;20087;-90
2022/08/14 02:11:15;;;;;;;1999.90;999.90;;;19.20;99.90;;;;;;5098255;28;20046;-93
2022/08/14 02:13:39;;;;;;;1999.90;999.90;;;19.20;99.90;;;;;;5116175;28;20055;-91
2022/08/14 02:16:06;;;;;;;1999.90;999.90;;;18.10;99.90;;;;;;5097991;28;20039;-93
2022/08/14 02:18:32;;;;;;;1999.90;999.90;;;19.20;99.90;;;;;;5115538;28;20048;-92
2022/08/14 02:20:58;;;;;;;1999.90;999.90;;;19.20;99.90;;;;;;5115961;28;20039;-94
2022/08/14 02:23:24;;;;;;;1999.90;999.90;;;19.20;99.90;;;;;;5114629;28;20053;-89
2022/08/14 02:25:49;;;;;;;1999.90;999.90;;;19.10;99.90;;;;;;5097608;28;20044;-91
2022/08/14 02:28:15;;;;;;;1999.90;999.90;;;19.10;99.90;;;;;;5096342;28;20119;-92
2022/08/14 02:30:41;;;;;;;1999.90;999.90;;;19.10;99.90;;;;;;5115133;28;20050;-91
2022/08/14 02:33:07;;;;;;;1999.90;999.90;;;19.10;99.90;;;;;;5114891;28;20047;-92
2022/08/14 02:35:33;;;;;;;1999.90;999.90;;;19.10;99.90;;;;;;5115387;28;20079;-95
2022/08/14 02:37:59;;;;;;;1999.90;999.90;;;19.10;99.90;;;;;;5096613;28;20067;-92
2022/08/14 02:40:26;;;;;;;1999.90;999.90;;;19.10;99.90;;;;;;5113817;28;20116;-92
2022/08/14 02:42:52;;;;;;;1999.90;999.90;;;19.10;99.90;;;;;;5115092;28;20476;-95
2022/08/14 02:45:17;;;;;;;1999.90;999.90;;;19.10;99.90;;;;;;5096699;28;20047;-93
2022/08/14 02:47:43;;;;;;;1999.90;999.90;;;19.10;99.90;;;;;;5114073;28;20094;-92
2022/08/14 02:50:09;;;;;;;1999.90;999.90;;;19.10;99.90;;;;;;5079642;28;20047;-92
2022/08/14 02:52:35;;;;;;;1999.90;999.90;;;19.10;99.90;;;;;;5116953;28;20475;-89
2022/08/14 02:55:01;;;;;;;1999.90;999.90;;;19.10;99.90;;;;;;5115974;28;20035;-90
2022/08/14 02:57:28;;;;;;;1999.90;999.90;;;19.10;99.90;;;;;;5115151;28;20055;-93
2022/08/14 02:59:54;;;;;;;1999.90;999.90;;;19.10;99.90;;;;;;5115022;28;20050;-91
2022/08/14 03:02:20;;;;;;;1999.90;999.90;;;19.10;99.90;;;;;;5115578;28;20047;-92
2022/08/14 03:04:46;;;;;;;1999.90;999.90;;;19.00;99.90;;;;;;5080363;28;20100;-93
2022/08/14 03:07:14;;;;;;;1999.90;999.90;;;19.00;99.90;;;;;;5114045;28;20044;-92
2022/08/14 03:09:40;;;;;;;1999.90;999.90;;;19.00;99.90;;;;;;5114505;28;20118;-93
2022/08/14 03:12:06;;;;;;;1999.90;999.90;;;19.00;99.90;;;;;;5114588;28;20552;-93
2022/08/14 03:14:36;;;;;;;1999.90;999.90;;;19.10;99.90;;;;;;5096692;28;20091;-91
2022/08/14 03:17:04;;;;;;;1999.90;999.90;;;19.00;99.90;;;;;;5097927;28;20061;-92
2022/08/14 03:19:30;;;;;;;1999.90;999.90;;;19.10;99.90;;;;;;5081177;28;20142;-90
2022/08/14 03:21:56;;;;;;;1999.90;999.90;;;19.00;99.90;;;;;;5079066;28;20121;-92
2022/08/14 03:24:22;;;;;;;1999.90;999.90;;;19.00;99.90;;;;;;5097801;28;20048;-93
2022/08/14 03:26:48;;;;;;;1999.90;999.90;;;19.00;99.90;;;;;;5114668;28;20135;-92
2022/08/14 03:29:19;;;;;;;1999.90;999.90;;;19.00;99.90;;;;;;5117487;28;20056;-92
2022/08/14 03:31:50;;;;;;;1999.90;999.90;;;19.00;99.90;;;;;;5102143;28;20036;-93
2022/08/14 03:34:17;;;;;;;1999.90;999.90;;;19.00;99.90;;;;;;5101915;28;20043;-92
2022/08/14 03:36:43;;;;;;;1999.90;999.90;;;19.00;99.90;;;;;;5121291;28;20047;-91
2022/08/14 03:39:11;;;;;;;1999.90;999.90;;;19.00;99.90;;;;;;5121264;28;20040;-93
2022/08/14 03:41:37;;;;;;;1999.90;999.90;;;18.90;99.90;;;;;;5120489;28;20057;-93
2022/08/14 03:44:05;;;;;;;1999.90;999.90;;;18.90;99.90;;;;;;5119905;28;20035;-93
2022/08/14 03:46:37;;;;;;;;;;;18.90;99.90;;;;;;5121571;28;20488;-91
2022/08/14 03:49:05;;;;;;;1999.90;999.90;;;18.80;99.90;;;;;;5102246;28;19926;-92
2022/08/14 03:51:32;;;;;;;1999.90;999.90;;;18.80;99.90;;;;;;5120814;28;20043;-90
2022/08/14 03:54:07;;;;;;;1999.90;999.90;;;18.80;99.90;;;;;;5102508;28;20051;-93
2022/08/14 03:56:35;;;;;;;1999.90;999.90;;;18.80;99.90;;;;;;5119701;28;20492;-92
2022/08/14 03:59:06;;;;;;;1999.90;999.90;;;18.80;99.90;;;;;;5118840;28;20047;-93
2022/08/14 04:01:32;;;;;;;1999.90;999.90;;;18.70;99.90;;;;;;5118945;28;20506;-88
2022/08/14 04:04:01;;;;;;;1999.90;999.90;;;18.70;99.90;;;;;;5100524;28;20054;-91
2022/08/14 04:06:27;;;;;;;1999.90;999.90;;;18.70;99.90;;;;;;5117851;28;20048;-92
2022/08/14 04:08:53;;;;;;;1999.90;999.90;;;18.70;99.90;;;;;;5100063;28;20058;-92
2022/08/14 04:11:19;;;;;;;1999.90;999.90;;;18.70;99.90;;;;;;5116996;28;20047;-92
2022/08/14 04:13:46;;;;;;;1999.90;999.90;;;18.60;99.90;;;;;;5117231;28;20051;-91
2022/08/14 04:16:21;;;;;;;1999.90;999.90;;;18.60;99.90;;;;;;5099346;28;20043;-93
2022/08/14 04:18:53;;;;;;;1999.90;999.90;;;18.60;99.90;;;;;;5117072;28;20069;-92
2022/08/14 04:21:23;;;;;;;1999.90;999.90;;;18.60;99.90;;;;;;5099164;28;20074;-93
2022/08/14 04:23:54;;;;;;;1999.90;999.90;;;18.60;99.90;;;;;;5117514;28;20055;-92
2022/08/14 04:26:21;;;;;;;1999.90;999.90;;;18.60;99.90;;;;;;5119311;28;20479;-92
2022/08/14 04:28:48;;;;;;;1999.90;999.90;;;18.60;99.90;;;;;;5119532;28;20076;-93
2022/08/14 04:31:15;;;;;;;1999.90;999.90;;;18.60;99.90;;;;;;5100657;28;20047;-92
2022/08/14 04:33:41;;;;;;;1999.90;999.90;;;18.60;99.90;;;;;;5116144;28;20087;-93
2022/08/14 04:36:08;;;;;;;1999.90;999.90;;;18.50;99.90;;;;;;5115945;28;20043;-91
2022/08/14 04:44:03;;;;;;;1999.90;999.90;;;18.50;99.90;;;;;;5117091;28;20095;-90
2022/08/14 04:46:29;;;;;;;1999.90;999.90;;;18.50;99.90;;;;;;5082803;28;20078;-91
2022/08/14 04:48:56;;;;;;;1999.90;999.90;;;18.50;99.90;;;;;;5117635;28;20266;-93
2022/08/14 04:51:25;;;;;;;1999.90;999.90;;;18.50;99.90;;;;;;5116099;28;20051;-92
2022/08/14 04:53:52;;;;;;;1999.90;999.90;;;18.50;99.90;;;;;;5118266;28;20054;-94
2022/08/14 04:56:21;;;;;;;1999.90;999.90;;;18.50;99.90;;;;;;5115425;28;20047;-93
2022/08/14 04:58:48;;;;;;;1999.90;999.90;;;18.50;99.90;;;;;;5097386;28;20128;-92
2022/08/14 05:01:15;;;;;;;1999.90;999.90;;;18.50;99.90;;;;;;5097412;28;20079;-92
2022/08/14 05:03:41;;;;;;;1999.90;999.90;;;18.50;99.90;;;;;;5115798;28;20051;-94
2022/08/14 05:06:09;;;;;;;1999.90;999.90;;;18.50;99.90;;;;;;5097172;28;20051;-94
2022/08/14 05:08:36;;;;;;;1999.90;999.90;;;18.60;99.90;;;;;;5114390;28;20051;-88
2022/08/14 05:11:05;;;;;;;1999.90;999.90;;;18.60;99.90;;;;;;5096966;28;20039;-92
2022/08/14 05:13:32;;;;;;;1999.90;999.90;;;18.60;99.90;;;;;;5098538;28;20481;-91
2022/08/14 05:16:00;;;;;;;1999.90;999.90;;;18.60;99.90;;;;;;5098945;28;20039;-93
2022/08/14 05:18:34;;;;;;;1999.90;999.90;;;18.70;99.90;;;;;;5098150;28;20044;-91
2022/08/14 05:21:03;;;;;;;1999.90;999.90;;;18.70;99.90;;;;;;5117080;28;20051;-91
2022/08/14 05:23:31;;;;;;;1999.90;999.90;;;18.70;99.90;;;;;;5115964;28;20401;-92
2022/08/14 05:26:20;;;;;;;1999.90;999.90;;;18.80;99.90;;;;;;5117405;28;20083;-92
2022/08/14 05:28:46;;;;;;;1999.90;999.90;;;18.80;99.90;;;;;;5117844;28;20506;-93
2022/08/14 05:31:16;;;;;;;1999.90;999.90;;;18.80;99.90;;;;;;5117874;28;20126;-89
2022/08/14 05:33:43;;;;;;;1999.90;999.90;;;18.90;99.90;;;;;;5100377;28;20070;-92
2022/08/14 05:36:10;;;;;;;1999.90;999.90;;;18.90;99.90;;;;;;5116932;28;20096;-93
2022/08/14 05:38:43;;;;;;;1999.90;999.90;;;18.90;99.90;;;;;;5098452;28;20052;-91
2022/08/14 05:41:12;;;;;;;1999.90;999.90;;;19.00;99.90;;;;;;5098532;28;20058;-92
2022/08/14 05:43:39;;;;;;;1999.90;999.90;;;19.10;99.90;;;;;;5117293;28;20055;-91
2022/08/14 05:46:06;;;;;;;1999.90;999.90;;;18.90;99.90;;;;;;5117365;28;20039;-91
2022/08/14 05:48:32;;;;;;;1999.90;999.90;;;19.20;99.90;;;;;;5116105;28;20039;-93
2022/08/14 05:50:58;;;;;;;1999.90;999.90;;;19.30;99.90;;;;;;5115186;28;20113;-93
2022/08/14 05:53:26;;;;;;;1999.90;999.90;;;19.30;99.90;;;;;;5115310;28;20043;-90
2022/08/14 05:55:52;;;;;;;;;;;19.30;99.90;;;;;;5116119;28;20077;-91
2022/08/14 05:58:18;;;;;;;1999.90;999.90;;;20.20;99.90;;;;;;5098976;28;19920;-94
2022/08/14 06:00:45;;;;;;;1999.90;999.90;;;19.40;99.90;;;;;;5118098;28;20051;-93
2022/08/14 06:03:16;;;;;;;1999.90;999.90;;;19.40;99.90;;;;;;5101281;28;20452;-92
2022/08/14 06:05:44;;;;;;;1999.90;999.90;;;19.50;99.90;;;;;;5099013;28;20048;-94
2022/08/14 06:08:14;;;;;;;;;;;19.50;99.90;;;;;;5120621;28;20538;-94
2022/08/14 06:10:40;;;;;;;1999.90;999.90;;;19.50;99.90;;;;;;5101862;28;20316;-92
2022/08/14 06:13:05;;;;;;;1999.90;999.90;;;19.60;99.90;;;;;;5120295;28;20129;-93
2022/08/14 06:15:31;;;;;;;1999.90;999.90;;;19.70;99.90;;;;;;5100232;28;20047;-92
2022/08/14 06:17:58;;;;;;;1999.90;999.90;;;19.70;99.90;;;;;;5101091;28;20043;-93
2022/08/14 06:20:24;;;;;;;1999.90;999.90;;;19.80;99.90;;;;;;5117642;28;20391;-93
2022/08/14 06:22:50;;;;;;;1999.90;999.90;;;19.90;99.90;;;;;;5121716;28;20103;-93
2022/08/14 06:25:16;;;;;;;1999.90;999.90;;;20.00;99.90;;;;;;5082984;28;20075;-93
2022/08/14 06:27:44;;;;;;;1995.80;999.90;;;20.00;99.90;;;;;;5121839;28;20126;-93
2022/08/14 06:30:22;;;;;;;1999.90;999.90;;;20.10;99.90;;;;;;5120307;28;20044;-93
2022/08/14 06:32:49;;;;;;;1999.90;999.90;;;20.40;99.90;;;;;;5119298;28;20051;-90
2022/08/14 06:35:19;;;;;;;1999.90;999.90;;;20.20;99.90;;;;;;5118037;28;20055;-93
2022/08/14 06:37:53;;;;;;;1999.90;999.90;;;20.30;99.90;;;;;;5118887;28;20043;-92
2022/08/14 06:40:22;;;;;;;1999.90;999.90;;;20.40;99.90;;;;;;5120090;28;20071;-91
2022/08/14 06:42:48;;;;;;;1999.90;999.90;;;20.50;99.90;;;;;;5123200;28;20066;-92
2022/08/14 06:45:15;;;;;;;1999.90;999.90;;;20.60;99.90;;;;;;5117455;28;20043;-91
2022/08/14 06:47:43;;;;;;;1999.90;999.90;;;20.70;99.90;;;;;;5118833;28;20130;-93
2022/08/14 06:50:18;;;;;;;1999.90;999.90;;;20.90;99.90;;;;;;5120708;28;20099;-94
2022/08/14 06:52:44;;;;;;;1999.90;999.90;;;21.10;99.90;;;;;;5115573;28;20083;-93
2022/08/14 06:55:12;;;;;;;1999.90;999.90;;;21.20;99.90;;;;;;5096930;28;20039;-89
2022/08/14 06:57:41;;;;;;;1999.90;999.90;;;21.40;99.90;;;;;;5094482;28;20043;-92
2022/08/14 07:00:10;;;;;;;1594.78;999.90;;;21.60;99.90;;;;;;5114842;28;20097;-92
2022/08/14 07:08:05;;;;;;;1738.43;999.90;;;22.10;99.90;;;;;;5113135;28;20126;-91
2022/08/14 07:10:32;;;;;;;1193.47;999.80;;;22.30;99.90;;;;;;5112826;28;20472;-91
2022/08/14 07:12:58;;;;;;;1686.03;999.90;;;22.50;99.90;;;;;;5094700;28;20089;-92
2022/08/14 07:15:24;;;;;;;1999.90;999.90;;;22.60;99.90;;;;;;5112795;28;20487;-93
2022/08/14 07:17:52;;;;;;;1999.90;999.90;;;22.70;99.90;;;;;;5095180;28;20040;-92
2022/08/14 07:20:19;;;;;;;1999.90;999.90;;;22.70;99.90;;;;;;5094922;28;20048;-91
2022/08/14 07:22:49;;;;;;;1593.15;999.90;;;22.90;99.90;;;;;;5095396;28;20056;-93
2022/08/14 07:25:15;;;;;;;1777.80;999.90;;;23.00;99.90;;;;;;5078107;28;20130;-92
2022/08/14 07:27:41;;;;;;;1629.80;999.90;;;23.10;99.90;;;;;;5112841;28;20437;-93
2022/08/14 07:30:09;;;;;;;1807.00;999.90;;;23.50;99.90;;;;;;5094948;28;20052;-92
2022/08/14 07:32:34;;;;;;;1084.75;975.45;;;25.00;99.90;;;;;;5094647;28;20048;-95
2022/08/14 07:35:00;;;;;;;1393.28;797.63;;;26.60;79.70;;;;;;5077879;28;20047;-95
2022/08/14 07:37:26;;;;;;;902.10;645.20;;;27.90;3.90;;;;;;5077435;28;20059;-86
2022/08/14 07:39:52;;;;;;;1999.90;999.90;;;29.10;1.00;;;;;;5094769;28;20044;-94
2022/08/14 07:42:18;;;;;;;1999.90;999.90;;;30.30;1.00;;;;;;5077834;28;20473;-94
2022/08/14 07:44:44;;;;;;;1999.90;999.90;;;31.10;1.00;;;;;;5095029;28;20043;-94
2022/08/14 07:47:09;;;;;;;1999.90;999.90;;;31.50;1.00;;;;;;5113237;28;20172;-95
2022/08/14 07:49:35;;;;;;;1999.90;999.90;;;31.70;1.00;;;;;;5112817;28;20122;-93
2022/08/14 07:52:01;;;;;;;1999.90;999.90;;;32.20;1.00;;;;;;5094910;28;20078;-93
2022/08/14 07:54:27;;;;;;;1999.90;999.90;;;33.10;1.00;;;;;;5095364;28;20046;-94
2022/08/14 07:56:53;;;;;;;1999.90;999.90;;;33.40;1.00;;;;;;5111983;28;20063;-93
2022/08/14 07:59:20;;;;;;;1999.90;999.90;;;33.50;1.00;;;;;;5113044;28;20437;-93
2022/08/14 08:01:46;;;;;;;;;;;33.60;1.00;;;;;;5113283;28;20127;-92
2022/08/14 08:04:13;;;;;;;1999.90;999.90;;;33.60;1.00;;;;;;5112747;28;19963;-92
2022/08/14 08:06:39;;;;;;;1999.90;999.90;;;33.70;1.00;;;;;;5094282;28;20047;-95
2022/08/14 08:09:07;;;;;;;1999.90;999.90;;;33.50;1.00;;;;;;5078002;28;20052;-95
2022/08/14 08:11:35;;;;;;;1999.90;999.90;;;34.60;1.00;;;;;;5112447;28;20043;-95
2022/08/14 08:14:06;;;;;;;1999.90;999.90;;;34.80;1.00;;;;;;5112674;28;20043;-94
2022/08/14 08:16:37;;;;;;;1999.90;999.90;;;35.00;1.00;;;;;;5079731;28;20101;-91
2022/08/14 08:19:04;;;;;;;1999.90;999.90;;;35.80;1.00;;;;;;5116475;28;20389;-94
2022/08/14 08:21:30;;;;;;;1999.90;999.90;;;35.90;1.00;;;;;;5116112;28;20043;-94
2022/08/14 08:23:56;;;;;;;1999.90;999.90;;;35.80;99.90;;;;;;5098032;28;20100;-94
2022/08/14 08:26:29;;;;;;;1999.90;999.90;;;35.20;99.90;;;;;;5115584;28;20128;-94
2022/08/14 08:28:57;;;;;;;1999.90;999.90;;;35.90;1.00;;;;;;5097781;28;20476;-94
2022/08/14 08:31:24;;;;;;;1999.90;999.90;;;36.20;99.90;;;;;;5116176;28;20399;-93
2022/08/14 08:33:53;;;;;;;1999.90;999.90;;;36.80;99.90;;;;;;5115428;28;20377;-93
2022/08/14 08:36:19;;;;;;;1999.90;999.90;;;37.00;99.90;;;;;;5115955;28;20043;-94
2022/08/14 08:38:48;;;;;;;1999.90;999.90;;;36.20;99.90;;;;;;5115579;28;20130;-92
2022/08/14 08:41:14;;;;;;;1999.90;999.90;;;36.10;99.90;;;;;;5097254;28;20046;-94
2022/08/14 08:43:40;;;;;;;1182.03;664.78;;;36.20;99.90;;;;;;5115747;28;20122;-94
2022/08/14 08:46:09;;;;;;;1999.90;999.90;;;36.60;99.90;;;;;;5115875;28;20035;-94
2022/08/14 08:48:48;;;;;;;1999.90;999.90;;;36.80;99.90;;;;;;5115536;28;20048;-91
2022/08/14 08:51:37;;;;;;;1999.90;999.90;;;37.30;99.90;;;;;;5115648;28;20123;-93
2022/08/14 08:54:09;;;;;;;1999.90;999.90;;;37.40;99.90;;;;;;5097395;28;20050;-93
2022/08/14 08:56:50;;;;;;;1999.90;999.90;;;37.90;99.90;;;;;;5114663;28;20605;-94
2022/08/14 08:59:24;;;;;;;1999.90;999.90;;;37.60;99.90;;;;;;5115498;28;20048;-94
2022/08/14 09:01:57;;;;;;;1999.90;999.90;;;37.90;99.90;;;;;;5097197;28;20075;-95
2022/08/14 09:04:25;;;;;;;1999.90;999.90;;;38.50;99.90;;;;;;5115408;28;20530;-94
2022/08/14 09:06:51;;;;;;;1999.90;999.90;;;39.20;99.90;;;;;;5115347;28;20054;-96
2022/08/14 09:09:24;;;;;;;;;;;39.80;99.90;;;;;;5097817;28;20498;-93
2022/08/14 09:11:54;;;;;;;1999.90;999.90;;;38.90;99.90;;;;;;5096794;28;19965;-94
2022/08/14 09:14:21;;;;;;;1999.90;999.90;;;39.00;99.90;;;;;;5116012;28;20050;-94
2022/08/14 09:16:48;;;;;;;1999.90;999.90;;;39.10;99.90;;;;;;5114769;28;20138;-94
2022/08/14 09:19:15;;;;;;;907.78;591.22;;;39.50;99.90;;;;;;5115140;28;20067;-93
2022/08/14 09:21:41;;;;;;;1999.90;999.90;;;39.40;99.90;;;;;;5114632;28;20487;-93
2022/08/14 09:24:08;;;;;;;1999.90;999.90;;;39.60;99.90;;;;;;5114888;28;20104;-95
2022/08/14 09:26:35;;;;;;;1999.90;999.90;;;40.40;99.90;;;;;;5114371;28;20449;-91
2022/08/14 09:29:03;;;;;;;1999.90;999.90;;;40.30;99.90;;;;;;5114858;28;20052;-94
2022/08/14 09:31:31;;;;;;;1999.90;999.90;;;39.80;99.90;;;;;;5114673;28;20112;-93
2022/08/14 09:34:11;;;;;;;1999.90;999.90;;;39.30;99.90;;;;;;5096637;28;20449;-93
2022/08/14 09:37:03;;;;;;;1999.90;999.90;;;38.50;99.90;;;;;;5114234;28;20044;-90
2022/08/14 09:40:01;;;;;;;1999.90;999.90;;;39.00;99.90;;;;;;5096563;28;20499;-94
2022/08/14 09:42:35;;;;;;;1150.68;596.67;;;38.80;99.90;;;;;;5097729;28;20556;-96
2022/08/14 09:45:18;;;;;;;1440.70;815.10;;;38.80;99.90;;;;;;5097068;28;20092;-91
2022/08/14 09:47:44;;;;;;;1999.90;999.90;;;38.90;99.90;;;;;;5095973;28;20503;-95
2022/08/14 09:50:20;;;;;;;1999.90;999.90;;;38.60;99.90;;;;;;5096399;28;20048;-94
2022/08/14 09:52:54;;;;;;;1999.90;999.90;;;38.60;99.90;;;;;;5096399;28;20122;-90
2022/08/14 09:55:22;;;;;;;1999.90;999.90;;;38.60;99.90;;;;;;5095887;28;20545;-91
2022/08/14 09:57:50;;;;;;;1999.90;999.90;;;38.60;99.90;;;;;;5095398;28;20053;-92
2022/08/14 10:00:18;;;;;;;1999.90;999.90;;;38.70;99.90;;;;;;5114366;28;20053;-92
2022/08/14 10:02:56;;;;;;;1636.25;851.30;;;38.70;99.90;;;;;;5113798;28;20399;-92
2022/08/14 10:05:33;;;;;;;1999.90;999.90;;;39.80;99.90;;;;;;5096060;28;20047;-93
2022/08/14 10:08:03;;;;;;;1046.95;936.03;;;40.30;99.90;;;;;;5095715;28;20073;-93
2022/08/14 10:10:39;;;;;;;516.08;361.70;;;41.20;99.90;;;;;;5113600;28;20039;-91
2022/08/14 10:13:18;;;;;;;1999.90;999.90;;;40.90;99.90;;;;;;5096122;28;20043;-93
2022/08/14 10:15:45;;;;;;;1999.90;999.90;;;41.70;99.90;;;;;;5113655;28;20050;-92
2022/08/14 10:18:16;;;;;;;1999.90;999.90;;;41.90;99.90;;;;;;5114182;28;20043;-91
2022/08/14 10:20:54;;;;;;;1999.90;999.90;;;42.00;99.90;;;;;;5095187;28;20046;-92
2022/08/14 10:23:22;;;;;;;1999.90;999.90;;;41.60;99.90;;;;;;5079141;28;20134;-89
2022/08/14 10:25:52;;;;;;;1999.90;999.90;;;40.80;99.90;;;;;;5095258;28;20126;-93
2022/08/14 10:28:21;;;;;;;1999.90;999.90;;;41.00;99.90;;;;;;5095480;28;20484;-93
2022/08/14 10:30:51;;;;;;;1999.90;999.90;;;40.20;99.90;;;;;;5095318;28;20083;-91
2022/08/14 10:33:24;;;;;;;1999.90;999.90;;;40.50;99.90;;;;;;5113625;28;20052;-93
2022/08/14 10:35:50;;;;;;;1999.90;999.90;;;40.60;99.90;;;;;;5113030;28;20398;-93
2022/08/14 10:38:28;;;;;;;1999.90;999.90;;;40.30;99.90;;;;;;5094769;28;20123;-90
2022/08/14 10:40:54;;;;;;;1999.90;999.90;;;39.90;99.90;;;;;;5094730;28;20126;-93
2022/08/14 10:43:25;;;;;;;1999.90;999.90;;;40.80;99.90;;;;;;5095553;28;20075;-91
2022/08/14 10:45:57;;;;;;;1999.90;999.90;;;41.30;99.90;;;;;;5113140;28;20043;-93
2022/08/14 10:48:22;;;;;;;1999.90;999.90;;;41.60;99.90;;;;;;5113478;28;20039;-92
2022/08/14 10:50:50;;;;;;;873.83;525.73;;;42.00;99.90;;;;;;5094685;28;20039;-91
2022/08/14 10:53:28;;;;;;;1278.78;940.22;;;41.90;99.90;;;;;;5113349;28;20281;-93
2022/08/14 10:55:59;;;;;;;1999.90;999.90;;;41.40;99.90;;;;;;5112704;28;20403;-93
2022/08/14 10:58:31;;;;;;;889.05;654.83;;;41.20;99.90;;;;;;5113142;28;20044;-93
2022/08/14 11:01:04;;;;;;;1999.90;999.90;;;41.60;99.90;;;;;;5113030;28;20095;-91
2022/08/14 11:03:39;;;;;;;1623.00;863.97;;;42.50;99.90;;;;;;5095094;28;20097;-92
2022/08/14 11:06:15;;;;;;;1999.90;999.90;;;42.90;99.90;;;;;;5094685;28;20052;-93
2022/08/14 11:08:40;;;;;;;1999.90;999.90;;;43.20;99.90;;;;;;5078114;28;20124;-92
2022/08/14 11:11:07;;;;;;;1999.90;999.90;;;42.40;99.90;;;;;;5112329;28;20480;-91
2022/08/14 11:13:32;;;;;;;1222.80;702.95;;;40.80;99.90;;;;;;5113073;28;20126;-92
2022/08/14 11:16:00;;;;;;;1177.38;660.90;;;41.10;99.90;;;;;;5094478;28;20459;-91
2022/08/14 11:18:27;;;;;;;1192.30;671.63;;;41.80;99.90;;;;;;5094380;28;20040;-92
2022/08/14 11:20:55;;;;;;;1999.90;999.90;;;41.10;99.90;;;;;;5077844;28;20062;-94
2022/08/14 11:23:26;;;;;;;1999.90;999.90;;;41.20;99.90;;;;;;5094715;28;20051;-88
2022/08/14 11:25:54;;;;;;;380.67;350.13;;;41.90;99.90;;;;;;5112605;28;20036;-91
2022/08/14 11:28:22;;;;;;;1078.15;764.17;;;41.00;99.90;;;;;;5077719;28;20050;-90
2022/08/14 11:30:50;;;;;;;473.98;427.42;;;41.20;99.90;;;;;;5094456;28;20054;-91
2022/08/14 11:33:20;;;;;;;709.88;638.95;;;40.90;99.90;;;;;;5112841;28;20052;-92
2022/08/14 11:35:47;;;;;;;1999.90;999.90;;;41.20;99.90;;;;;;5112571;28;20044;-86
2022/08/14 11:38:13;;;;;;;270.05;246.48;;;41.50;99.90;;;;;;5094651;28;20040;-88
2022/08/14 11:40:39;;;;;;;434.63;389.23;;;41.00;99.90;;;;;;5094252;28;20507;-89
2022/08/14 11:43:06;;;;;;;968.37;874.90;;;41.00;99.90;;;;;;5112531;28;20051;-90
2022/08/14 11:45:35;;;;;;;797.50;638.92;;;41.40;99.90;;;;;;5112807;28;20399;-91
2022/08/14 11:48:21;;;;;;;792.28;705.42;;;41.80;99.90;;;;;;5094330;28;20127;-92
2022/08/14 11:50:48;;;;;;;1544.50;791.85;;;42.10;99.90;;;;;;5115376;28;20043;-86
2022/08/14 11:53:27;;;;;;;541.92;473.95;;;41.10;99.90;;;;;;5116800;28;20039;-91
2022/08/14 11:56:01;;;;;;;1547.55;794.60;;;41.30;99.90;;;;;;5097901;28;20488;-91
2022/08/14 11:58:36;;;;;;;522.75;476.05;;;40.10;99.90;;;;;;5098419;28;20502;-89
2022/08/14 12:01:05;;;;;;;1999.90;999.90;;;41.10;99.90;;;;;;5098846;28;20056;-90
2022/08/14 12:03:45;;;;;;;649.30;527.60;;;40.50;99.90;;;;;;5117520;28;20526;-91
2022/08/14 12:06:16;;;;;;;707.45;636.78;;;40.50;99.90;;;;;;5088209;28;20192;-91
2022/08/14 12:08:42;;;;;;;1250.88;960.72;;;39.20;99.90;;;;;;5123743;28;20039;-89
2022/08/14 12:11:12;;;;;;;1031.90;843.15;;;38.60;99.90;;;;;;5123185;28;20047;-89
2022/08/14 12:13:39;;;;;;;1087.53;843.63;;;38.80;99.90;;;;;;5117292;28;20049;-89
2022/08/14 12:16:07;;;;;;;1999.90;999.90;;;39.50;99.90;;;;;;5116391;28;20040;-91
2022/08/14 12:18:35;;;;;;;1059.32;872.22;;;39.60;99.90;;;;;;5098061;28;20141;-90
2022/08/14 12:21:19;;;;;;;1132.18;812.20;;;39.60;99.90;;;;;;5115808;28;20050;-90
2022/08/14 12:23:47;;;;;;;1038.63;881.03;;;38.00;99.90;;;;;;5116009;28;20051;-90